sensor_id;sensor_type;location;lat;lon;timestamp;pressure;altitude;pressure_sealevel;temperature;humidity
46199;BME280;31928;52.104;10.030;2023-01-30T00:01:13;100466.19;;;6.54;56.74
46199;BME280;31928;52.104;10.030;2023-01-30T00:03:39;100480.97;;;6.56;56.57
46199;BME280;31928;52.104;10.030;2023-01-30T00:06:06;100476.50;;;6.57;56.75
46199;BME280;31928;52.104;10.030;2023-01-30T00:08:33;100476.31;;;6.58;56.53
46199;BME280;31928;52.104;10.030;2023-01-30T00:11:07;100472.91;;;6.64;56.75
46199;BME280;31928;52.104;10.030;2023-01-30T00:13:34;100441.31;;;6.61;56.58
46199;BME280;31928;52.104;10.030;2023-01-30T00:16:02;100430.94;;;6.66;56.70
46199;BME280;31928;52.104;10.030;2023-01-30T00:18:28;100426.41;;;6.66;56.77
46199;BME280;31928;52.104;10.030;2023-01-30T00:20:56;100389.78;;;6.68;56.50
46199;BME280;31928;52.104;10.030;2023-01-30T00:23:27;100368.09;;;6.71;56.53
46199;BME280;31928;52.104;10.030;2023-01-30T00:25:54;100370.56;;;6.73;56.21
46199;BME280;31928;52.104;10.030;2023-01-30T00:28:21;100367.69;;;6.74;56.43
46199;BME280;31928;52.104;10.030;2023-01-30T00:30:49;100363.03;;;6.76;56.39
46199;BME280;31928;52.104;10.030;2023-01-30T00:33:17;100378.44;;;6.81;56.04
46199;BME280;31928;52.104;10.030;2023-01-30T00:35:48;100376.41;;;6.83;56.01
46199;BME280;31928;52.104;10.030;2023-01-30T00:38:15;100398.38;;;6.85;55.76
46199;BME280;31928;52.104;10.030;2023-01-30T00:40:42;100412.31;;;6.87;55.84
46199;BME280;31928;52.104;10.030;2023-01-30T00:43:11;100403.13;;;6.89;55.66
46199;BME280;31928;52.104;10.030;2023-01-30T00:45:57;100404.59;;;6.92;55.45
46199;BME280;31928;52.104;10.030;2023-01-30T00:48:42;100393.13;;;6.91;55.33
46199;BME280;31928;52.104;10.030;2023-01-30T00:51:09;100396.59;;;6.92;55.83
46199;BME280;31928;52.104;10.030;2023-01-30T00:53:35;100382.06;;;7.15;55.42
46199;BME280;31928;52.104;10.030;2023-01-30T00:56:02;100374.88;;;6.95;56.22
46199;BME280;31928;52.104;10.030;2023-01-30T00:58:29;100365.28;;;6.94;56.29
46199;BME280;31928;52.104;10.030;2023-01-30T01:00:55;100349.72;;;6.97;56.59
46199;BME280;31928;52.104;10.030;2023-01-30T01:03:22;100334.78;;;7.03;56.28
46199;BME280;31928;52.104;10.030;2023-01-30T01:05:48;100330.75;;;7.07;56.29
46199;BME280;31928;52.104;10.030;2023-01-30T01:08:15;100319.69;;;7.10;56.26
46199;BME280;31928;52.104;10.030;2023-01-30T01:10:42;100320.16;;;7.13;56.03
46199;BME280;31928;52.104;10.030;2023-01-30T01:13:08;100318.94;;;7.16;56.23
46199;BME280;31928;52.104;10.030;2023-01-30T01:15:36;100318.53;;;7.18;56.24
46199;BME280;31928;52.104;10.030;2023-01-30T01:18:02;100351.34;;;7.19;56.30
46199;BME280;31928;52.104;10.030;2023-01-30T01:20:29;100346.06;;;7.25;55.87
46199;BME280;31928;52.104;10.030;2023-01-30T01:22:55;100328.88;;;7.28;56.27
46199;BME280;31928;52.104;10.030;2023-01-30T01:25:23;100317.84;;;7.31;55.95
46199;BME280;31928;52.104;10.030;2023-01-30T01:27:50;100319.03;;;7.28;56.54
46199;BME280;31928;52.104;10.030;2023-01-30T01:30:17;100298.97;;;7.32;56.29
46199;BME280;31928;52.104;10.030;2023-01-30T01:32:43;100288.72;;;7.36;56.50
46199;BME280;31928;52.104;10.030;2023-01-30T01:35:10;100290.81;;;7.40;56.18
46199;BME280;31928;52.104;10.030;2023-01-30T01:37:36;100286.75;;;7.44;56.32
46199;BME280;31928;52.104;10.030;2023-01-30T01:40:03;100278.25;;;7.62;56.07
46199;BME280;31928;52.104;10.030;2023-01-30T01:42:48;100264.81;;;7.49;56.12
46199;BME280;31928;52.104;10.030;2023-01-30T01:45:22;100261.97;;;7.50;56.63
46199;BME280;31928;52.104;10.030;2023-01-30T01:48:00;100260.56;;;7.54;56.20
46199;BME280;31928;52.104;10.030;2023-01-30T01:50:42;100253.56;;;7.53;56.08
46199;BME280;31928;52.104;10.030;2023-01-30T01:53:11;100234.06;;;7.46;56.60
46199;BME280;31928;52.104;10.030;2023-01-30T01:55:40;100218.06;;;7.46;56.56
46199;BME280;31928;52.104;10.030;2023-01-30T01:58:13;100217.41;;;7.44;57.08
46199;BME280;31928;52.104;10.030;2023-01-30T02:00:41;100212.84;;;7.38;57.23
46199;BME280;31928;52.104;10.030;2023-01-30T02:03:11;100189.72;;;7.45;57.18
46199;BME280;31928;52.104;10.030;2023-01-30T02:05:42;100194.66;;;7.48;57.37
46199;BME280;31928;52.104;10.030;2023-01-30T02:08:18;100170.59;;;7.35;57.58
46199;BME280;31928;52.104;10.030;2023-01-30T02:11:09;100182.97;;;7.49;57.20
46199;BME280;31928;52.104;10.030;2023-01-30T02:13:38;100177.16;;;7.39;57.84
46199;BME280;31928;52.104;10.030;2023-01-30T02:16:06;100176.16;;;7.40;57.95
46199;BME280;31928;52.104;10.030;2023-01-30T02:18:35;100175.16;;;7.41;57.79
46199;BME280;31928;52.104;10.030;2023-01-30T02:35:41;100165.91;;;7.37;58.22
46199;BME280;31928;52.104;10.030;2023-01-30T02:38:34;100192.53;;;7.31;58.40
46199;BME280;31928;52.104;10.030;2023-01-30T02:47:03;100166.91;;;7.36;58.41
46199;BME280;31928;52.104;10.030;2023-01-30T02:49:39;100141.03;;;7.30;58.72
46199;BME280;31928;52.104;10.030;2023-01-30T02:52:10;100164.41;;;7.28;58.70
46199;BME280;31928;52.104;10.030;2023-01-30T02:54:37;100116.00;;;7.25;58.90
46199;BME280;31928;52.104;10.030;2023-01-30T02:57:16;100109.25;;;7.35;58.24
46199;BME280;31928;52.104;10.030;2023-01-30T02:59:45;100113.97;;;7.33;58.52
46199;BME280;31928;52.104;10.030;2023-01-30T03:07:41;100109.50;;;7.40;58.74
46199;BME280;31928;52.104;10.030;2023-01-30T03:10:32;100097.97;;;7.40;59.02
46199;BME280;31928;52.104;10.030;2023-01-30T03:16:01;100077.94;;;7.50;59.13
46199;BME280;31928;52.104;10.030;2023-01-30T03:18:29;100083.28;;;7.50;58.73
46199;BME280;31928;52.104;10.030;2023-01-30T03:20:56;100068.53;;;7.54;59.00
46199;BME280;31928;52.104;10.030;2023-01-30T03:23:28;100064.00;;;7.55;59.39
46199;BME280;31928;52.104;10.030;2023-01-30T03:25:55;100060.53;;;7.61;59.35
46199;BME280;31928;52.104;10.030;2023-01-30T03:28:21;100080.03;;;7.61;60.10
46199;BME280;31928;52.104;10.030;2023-01-30T03:30:48;100082.53;;;7.82;60.05
46199;BME280;31928;52.104;10.030;2023-01-30T03:33:15;100056.88;;;7.68;60.71
46199;BME280;31928;52.104;10.030;2023-01-30T03:35:41;100040.25;;;7.73;60.63
46199;BME280;31928;52.104;10.030;2023-01-30T03:38:08;100037.38;;;7.93;59.90
46199;BME280;31928;52.104;10.030;2023-01-30T03:40:35;100034.31;;;7.83;60.64
46199;BME280;31928;52.104;10.030;2023-01-30T03:43:01;100029.78;;;7.84;60.69
46199;BME280;31928;52.104;10.030;2023-01-30T03:45:28;100028.38;;;7.88;60.53
46199;BME280;31928;52.104;10.030;2023-01-30T03:47:54;100023.66;;;7.90;60.76
46199;BME280;31928;52.104;10.030;2023-01-30T03:50:21;100020.56;;;7.93;60.65
46199;BME280;31928;52.104;10.030;2023-01-30T03:52:47;100014.81;;;7.96;60.41
46199;BME280;31928;52.104;10.030;2023-01-30T03:55:14;100007.44;;;7.91;61.38
46199;BME280;31928;52.104;10.030;2023-01-30T03:57:41;99991.81;;;7.95;61.15
46199;BME280;31928;52.104;10.030;2023-01-30T04:00:08;99998.41;;;7.99;61.24
46199;BME280;31928;52.104;10.030;2023-01-30T04:02:35;100007.81;;;7.95;61.20
46199;BME280;31928;52.104;10.030;2023-01-30T04:05:01;99994.47;;;8.01;61.12
46199;BME280;31928;52.104;10.030;2023-01-30T04:07:28;100001.69;;;8.01;60.96
46199;BME280;31928;52.104;10.030;2023-01-30T04:09:55;99997.16;;;8.01;60.91
46199;BME280;31928;52.104;10.030;2023-01-30T04:12:21;99993.88;;;8.06;60.58
46199;BME280;31928;52.104;10.030;2023-01-30T04:14:48;99995.53;;;8.07;60.69
46199;BME280;31928;52.104;10.030;2023-01-30T04:17:14;100011.53;;;8.00;61.39
46199;BME280;31928;52.104;10.030;2023-01-30T04:19:41;99994.91;;;8.05;61.26
46199;BME280;31928;52.104;10.030;2023-01-30T04:22:08;99973.53;;;8.05;61.27
46199;BME280;31928;52.104;10.030;2023-01-30T04:24:34;99981.13;;;8.08;61.53
46199;BME280;31928;52.104;10.030;2023-01-30T04:27:00;100002.09;;;8.11;61.07
46199;BME280;31928;52.104;10.030;2023-01-30T04:29:27;99971.72;;;8.12;61.06
46199;BME280;31928;52.104;10.030;2023-01-30T04:31:54;99977.69;;;8.14;61.13
46199;BME280;31928;52.104;10.030;2023-01-30T04:34:20;99964.34;;;8.14;61.34
46199;BME280;31928;52.104;10.030;2023-01-30T04:36:47;99960.66;;;8.15;61.44
46199;BME280;31928;52.104;10.030;2023-01-30T04:39:13;99969.66;;;8.14;61.92
46199;BME280;31928;52.104;10.030;2023-01-30T04:41:40;99963.09;;;8.16;61.84
46199;BME280;31928;52.104;10.030;2023-01-30T04:44:06;99964.53;;;8.19;61.82
46199;BME280;31928;52.104;10.030;2023-01-30T04:46:33;99974.19;;;8.20;61.70
46199;BME280;31928;52.104;10.030;2023-01-30T04:48:59;99964.75;;;8.24;61.47
46199;BME280;31928;52.104;10.030;2023-01-30T04:51:26;99964.31;;;8.27;61.70
46199;BME280;31928;52.104;10.030;2023-01-30T04:53:52;99947.69;;;8.25;61.58
46199;BME280;31928;52.104;10.030;2023-01-30T04:56:19;99948.91;;;8.29;61.49
46199;BME280;31928;52.104;10.030;2023-01-30T04:58:45;99945.41;;;8.28;61.28
46199;BME280;31928;52.104;10.030;2023-01-30T05:03:55;99948.09;;;8.28;61.35
46199;BME280;31928;52.104;10.030;2023-01-30T05:06:22;99952.19;;;8.31;61.69
46199;BME280;31928;52.104;10.030;2023-01-30T05:08:50;99938.44;;;8.34;61.48
46199;BME280;31928;52.104;10.030;2023-01-30T05:11:17;99938.00;;;8.37;61.30
46199;BME280;31928;52.104;10.030;2023-01-30T05:13:44;99921.34;;;8.35;61.88
46199;BME280;31928;52.104;10.030;2023-01-30T05:16:11;99959.38;;;8.37;61.80
46199;BME280;31928;52.104;10.030;2023-01-30T05:18:39;99923.84;;;8.42;62.08
46199;BME280;31928;52.104;10.030;2023-01-30T05:21:09;99927.88;;;8.64;60.81
46199;BME280;31928;52.104;10.030;2023-01-30T05:23:36;99936.72;;;8.52;61.29
46199;BME280;31928;52.104;10.030;2023-01-30T05:26:03;99945.34;;;8.47;61.22
46199;BME280;31928;52.104;10.030;2023-01-30T05:28:30;99949.09;;;8.46;61.76
46199;BME280;31928;52.104;10.030;2023-01-30T05:31:11;99920.69;;;8.58;61.14
46199;BME280;31928;52.104;10.030;2023-01-30T05:33:39;99931.81;;;8.55;61.66
46199;BME280;31928;52.104;10.030;2023-01-30T05:36:07;99932.81;;;8.54;61.68
46199;BME280;31928;52.104;10.030;2023-01-30T05:38:35;99914.34;;;8.53;62.02
46199;BME280;31928;52.104;10.030;2023-01-30T05:41:06;99923.97;;;8.54;62.04
46199;BME280;31928;52.104;10.030;2023-01-30T05:43:34;99928.50;;;8.53;62.43
46199;BME280;31928;52.104;10.030;2023-01-30T05:46:04;99918.19;;;8.63;61.84
46199;BME280;31928;52.104;10.030;2023-01-30T05:48:31;99920.44;;;8.66;61.58
46199;BME280;31928;52.104;10.030;2023-01-30T05:50:59;99916.56;;;8.62;61.98
46199;BME280;31928;52.104;10.030;2023-01-30T05:53:27;99915.28;;;8.71;61.89
46199;BME280;31928;52.104;10.030;2023-01-30T05:55:58;99917.53;;;8.74;61.61
46199;BME280;31928;52.104;10.030;2023-01-30T05:58:26;99916.06;;;8.78;61.76
46199;BME280;31928;52.104;10.030;2023-01-30T06:00:53;99923.06;;;8.79;61.87
46199;BME280;31928;52.104;10.030;2023-01-30T06:03:20;99921.59;;;8.83;61.82
46199;BME280;31928;52.104;10.030;2023-01-30T06:05:46;99935.59;;;8.85;61.35
46199;BME280;31928;52.104;10.030;2023-01-30T06:08:13;99923.44;;;8.89;61.40
46199;BME280;31928;52.104;10.030;2023-01-30T06:10:39;99913.38;;;8.85;61.57
46199;BME280;31928;52.104;10.030;2023-01-30T06:13:06;99905.97;;;8.87;61.66
46199;BME280;31928;52.104;10.030;2023-01-30T06:15:32;99938.66;;;8.89;61.61
46199;BME280;31928;52.104;10.030;2023-01-30T06:17:59;99939.47;;;8.89;61.65
46199;BME280;31928;52.104;10.030;2023-01-30T06:20:25;99920.13;;;8.87;61.34
46199;BME280;31928;52.104;10.030;2023-01-30T06:22:52;99924.66;;;8.93;61.14
46199;BME280;31928;52.104;10.030;2023-01-30T06:25:18;99917.06;;;8.90;61.50
46199;BME280;31928;52.104;10.030;2023-01-30T06:27:45;99916.63;;;8.93;61.44
46199;BME280;31928;52.104;10.030;2023-01-30T06:30:12;99921.25;;;9.17;60.37
46199;BME280;31928;52.104;10.030;2023-01-30T06:32:40;99929.34;;;8.97;61.28
46199;BME280;31928;52.104;10.030;2023-01-30T06:35:08;99921.97;;;8.93;61.14
46199;BME280;31928;52.104;10.030;2023-01-30T06:37:34;99895.47;;;8.92;61.33
46199;BME280;31928;52.104;10.030;2023-01-30T06:40:01;99903.69;;;8.90;61.76
46199;BME280;31928;52.104;10.030;2023-01-30T06:42:27;99926.69;;;8.91;61.25
46199;BME280;31928;52.104;10.030;2023-01-30T06:44:54;99910.84;;;8.96;60.94
46199;BME280;31928;52.104;10.030;2023-01-30T06:47:20;99895.88;;;8.95;60.29
46199;BME280;31928;52.104;10.030;2023-01-30T06:49:46;99906.13;;;8.98;59.99
46199;BME280;31928;52.104;10.030;2023-01-30T06:52:14;99914.38;;;8.90;59.67
46199;BME280;31928;52.104;10.030;2023-01-30T06:54:40;99939.03;;;8.92;60.46
46199;BME280;31928;52.104;10.030;2023-01-30T06:57:07;99956.06;;;8.97;60.77
46199;BME280;31928;52.104;10.030;2023-01-30T06:59:33;99941.69;;;8.98;60.34
46199;BME280;31928;52.104;10.030;2023-01-30T07:02:00;99948.88;;;8.98;60.81
46199;BME280;31928;52.104;10.030;2023-01-30T07:04:26;99955.66;;;9.00;60.42
46199;BME280;31928;52.104;10.030;2023-01-30T07:06:53;99953.63;;;8.96;60.76
46199;BME280;31928;52.104;10.030;2023-01-30T07:09:19;99943.53;;;8.98;60.92
46199;BME280;31928;52.104;10.030;2023-01-30T07:11:46;99939.84;;;8.99;60.81
46199;BME280;31928;52.104;10.030;2023-01-30T07:14:13;99956.91;;;8.98;60.82
46199;BME280;31928;52.104;10.030;2023-01-30T07:16:40;99955.88;;;8.99;60.82
46199;BME280;31928;52.104;10.030;2023-01-30T07:19:07;99957.50;;;9.00;60.66
46199;BME280;31928;52.104;10.030;2023-01-30T07:21:33;99947.09;;;9.23;59.53
46199;BME280;31928;52.104;10.030;2023-01-30T07:24:00;99961.59;;;9.02;60.57
46199;BME280;31928;52.104;10.030;2023-01-30T07:26:26;99957.09;;;9.03;60.61
46199;BME280;31928;52.104;10.030;2023-01-30T07:28:55;99943.09;;;9.01;60.59
46199;BME280;31928;52.104;10.030;2023-01-30T07:31:21;99936.72;;;9.02;60.63
46199;BME280;31928;52.104;10.030;2023-01-30T07:33:48;99960.19;;;9.00;60.52
46199;BME280;31928;52.104;10.030;2023-01-30T07:36:14;99965.75;;;8.98;60.49
46199;BME280;31928;52.104;10.030;2023-01-30T07:38:41;99960.19;;;9.00;60.48
46199;BME280;31928;52.104;10.030;2023-01-30T07:41:07;99957.31;;;9.01;60.28
46199;BME280;31928;52.104;10.030;2023-01-30T07:43:34;99937.16;;;8.99;60.17
46199;BME280;31928;52.104;10.030;2023-01-30T07:46:00;99953.81;;;9.01;59.59
46199;BME280;31928;52.104;10.030;2023-01-30T07:48:27;99939.00;;;8.98;59.81
46199;BME280;31928;52.104;10.030;2023-01-30T07:50:54;99953.81;;;9.01;59.55
46199;BME280;31928;52.104;10.030;2023-01-30T07:53:24;99954.66;;;9.01;59.06
46199;BME280;31928;52.104;10.030;2023-01-30T07:55:51;99945.78;;;9.01;59.10
46199;BME280;31928;52.104;10.030;2023-01-30T07:58:17;99967.78;;;9.03;58.80
46199;BME280;31928;52.104;10.030;2023-01-30T08:00:44;99967.78;;;9.03;58.83
46199;BME280;31928;52.104;10.030;2023-01-30T08:03:14;99954.28;;;9.29;58.09
46199;BME280;31928;52.104;10.030;2023-01-30T08:05:42;99955.63;;;9.07;58.91
46199;BME280;31928;52.104;10.030;2023-01-30T08:08:10;99949.88;;;9.03;59.22
46199;BME280;31928;52.104;10.030;2023-01-30T08:10:37;99937.94;;;9.06;59.38
46199;BME280;31928;52.104;10.030;2023-01-30T08:13:03;99947.63;;;9.07;58.83
46199;BME280;31928;52.104;10.030;2023-01-30T08:15:30;99933.63;;;9.05;59.18
46199;BME280;31928;52.104;10.030;2023-01-30T08:17:58;99938.56;;;9.08;59.12
46199;BME280;31928;52.104;10.030;2023-01-30T08:20:26;99933.19;;;9.14;58.89
46199;BME280;31928;52.104;10.030;2023-01-30T08:22:53;99942.63;;;9.17;58.67
46199;BME280;31928;52.104;10.030;2023-01-30T08:25:20;99922.44;;;9.21;58.82
46199;BME280;31928;52.104;10.030;2023-01-30T08:27:47;99929.00;;;9.25;58.59
46199;BME280;31928;52.104;10.030;2023-01-30T08:30:13;99936.16;;;9.31;58.47
46199;BME280;31928;52.104;10.030;2023-01-30T08:32:40;99933.88;;;9.34;58.22
46199;BME280;31928;52.104;10.030;2023-01-30T08:35:07;99941.25;;;9.39;57.69
46199;BME280;31928;52.104;10.030;2023-01-30T08:37:34;99929.69;;;9.45;57.05
46199;BME280;31928;52.104;10.030;2023-01-30T08:40:00;99941.19;;;9.52;57.03
46199;BME280;31928;52.104;10.030;2023-01-30T08:42:27;99941.31;;;9.56;56.79
46199;BME280;31928;52.104;10.030;2023-01-30T08:44:53;99940.47;;;9.62;56.65
46199;BME280;31928;52.104;10.030;2023-01-30T08:47:20;99954.81;;;9.68;56.43
46199;BME280;31928;52.104;10.030;2023-01-30T08:49:46;99954.19;;;9.72;56.15
46199;BME280;31928;52.104;10.030;2023-01-30T08:52:13;99963.69;;;9.99;56.77
46199;BME280;31928;52.104;10.030;2023-01-30T08:54:40;99938.47;;;9.82;56.00
46199;BME280;31928;52.104;10.030;2023-01-30T08:57:06;99957.78;;;9.84;55.62
46199;BME280;31928;52.104;10.030;2023-01-30T08:59:33;99971.81;;;9.86;54.53
46199;BME280;31928;52.104;10.030;2023-01-30T09:01:59;99964.34;;;9.88;54.77
46199;BME280;31928;52.104;10.030;2023-01-30T09:04:28;99976.25;;;9.92;55.19
46199;BME280;31928;52.104;10.030;2023-01-30T09:06:55;99983.09;;;9.88;54.54
46199;BME280;31928;52.104;10.030;2023-01-30T09:09:22;99976.72;;;9.89;54.18
46199;BME280;31928;52.104;10.030;2023-01-30T09:11:48;99973.41;;;9.87;53.95
46199;BME280;31928;52.104;10.030;2023-01-30T09:14:15;99985.78;;;9.88;53.99
46199;BME280;31928;52.104;10.030;2023-01-30T09:16:49;99986.38;;;9.90;53.99
46199;BME280;31928;52.104;10.030;2023-01-30T09:19:25;99991.13;;;9.88;53.92
46199;BME280;31928;52.104;10.030;2023-01-30T09:21:53;99993.22;;;9.86;53.83
46199;BME280;31928;52.104;10.030;2023-01-30T09:24:21;99974.47;;;9.86;53.64
46199;BME280;31928;52.104;10.030;2023-01-30T09:26:53;99987.03;;;9.86;53.76
46199;BME280;31928;52.104;10.030;2023-01-30T09:29:19;99990.94;;;9.83;53.66
46199;BME280;31928;52.104;10.030;2023-01-30T09:31:46;99980.84;;;9.85;53.28
46199;BME280;31928;52.104;10.030;2023-01-30T09:34:12;99981.44;;;9.87;53.86
46199;BME280;31928;52.104;10.030;2023-01-30T09:36:39;99995.28;;;9.84;53.55
46199;BME280;31928;52.104;10.030;2023-01-30T09:39:06;99998.56;;;9.86;53.42
46199;BME280;31928;52.104;10.030;2023-01-30T09:48:04;99981.19;;;9.95;53.52
46199;BME280;31928;52.104;10.030;2023-01-30T09:53:35;99975.06;;;9.88;52.89
46199;BME280;31928;52.104;10.030;2023-01-30T09:56:04;99979.22;;;9.84;52.13
46199;BME280;31928;52.104;10.030;2023-01-30T09:58:41;99987.41;;;9.89;52.46
46199;BME280;31928;52.104;10.030;2023-01-30T10:01:38;99980.00;;;9.91;52.15
46199;BME280;31928;52.104;10.030;2023-01-30T10:04:14;99988.63;;;9.93;52.50
46199;BME280;31928;52.104;10.030;2023-01-30T10:06:58;99963.31;;;9.89;51.09
46199;BME280;31928;52.104;10.030;2023-01-30T10:12:51;99995.22;;;9.97;51.43
46199;BME280;31928;52.104;10.030;2023-01-30T10:21:03;99977.66;;;10.01;51.18
46199;BME280;31928;52.104;10.030;2023-01-30T10:23:55;99976.06;;;10.00;51.51
46199;BME280;31928;52.104;10.030;2023-01-30T10:26:26;99957.53;;;9.92;51.59
46199;BME280;31928;52.104;10.030;2023-01-30T10:29:07;99959.78;;;9.95;51.87
46199;BME280;31928;52.104;10.030;2023-01-30T10:34:22;99974.81;;;9.96;51.93
46199;BME280;31928;52.104;10.030;2023-01-30T10:36:58;99966.59;;;9.98;52.20
46199;BME280;31928;52.104;10.030;2023-01-30T10:39:32;99985.53;;;9.96;51.74
46199;BME280;31928;52.104;10.030;2023-01-30T10:42:10;99986.16;;;9.98;52.25
46199;BME280;31928;52.104;10.030;2023-01-30T10:44:39;99986.16;;;9.98;51.88
46199;BME280;31928;52.104;10.030;2023-01-30T10:47:26;99970.84;;;10.05;51.71
46199;BME280;31928;52.104;10.030;2023-01-30T10:50:20;99971.66;;;10.06;51.74
46199;BME280;31928;52.104;10.030;2023-01-30T10:52:55;99975.00;;;10.01;50.98
46199;BME280;31928;52.104;10.030;2023-01-30T10:55:33;99959.69;;;10.08;51.22
46199;BME280;31928;52.104;10.030;2023-01-30T10:58:24;99951.44;;;10.10;51.59
46199;BME280;31928;52.104;10.030;2023-01-30T11:01:05;99953.66;;;10.13;51.94
46199;BME280;31928;52.104;10.030;2023-01-30T11:07:04;99951.72;;;10.26;51.84
46199;BME280;31928;52.104;10.030;2023-01-30T11:09:45;99966.81;;;10.38;52.16
46199;BME280;31928;52.104;10.030;2023-01-30T11:12:13;99965.38;;;10.36;52.44
46199;BME280;31928;52.104;10.030;2023-01-30T11:17:38;99942.06;;;10.43;52.48
46199;BME280;31928;52.104;10.030;2023-01-30T11:20:13;99938.75;;;10.41;52.41
46199;BME280;31928;52.104;10.030;2023-01-30T11:23:05;99950.25;;;10.48;52.80
46199;BME280;31928;52.104;10.030;2023-01-30T11:26:03;99941.22;;;10.42;52.21
46199;BME280;31928;52.104;10.030;2023-01-30T11:28:42;99958.53;;;10.40;52.47
46199;BME280;31928;52.104;10.030;2023-01-30T11:31:17;99954.25;;;10.39;52.60
46199;BME280;31928;52.104;10.030;2023-01-30T11:34:10;99950.38;;;10.35;51.90
46199;BME280;31928;52.104;10.030;2023-01-30T11:36:38;99939.72;;;10.28;52.14
46199;BME280;31928;52.104;10.030;2023-01-30T11:44:37;99921.09;;;10.33;53.12
46199;BME280;31928;52.104;10.030;2023-01-30T11:47:08;99928.94;;;10.35;51.89
46199;BME280;31928;52.104;10.030;2023-01-30T11:49:45;99923.13;;;10.38;52.49
46199;BME280;31928;52.104;10.030;2023-01-30T11:52:35;99913.59;;;10.42;52.53
46199;BME280;31928;52.104;10.030;2023-01-30T11:55:06;99903.84;;;10.47;52.83
46199;BME280;31928;52.104;10.030;2023-01-30T11:57:44;99907.88;;;10.56;52.82
46199;BME280;31928;52.104;10.030;2023-01-30T12:00:22;99900.13;;;10.66;53.11
46199;BME280;31928;52.104;10.030;2023-01-30T12:02:51;99904.59;;;10.72;52.23
46199;BME280;31928;52.104;10.030;2023-01-30T12:05:29;99900.78;;;10.79;52.30
46199;BME280;31928;52.104;10.030;2023-01-30T12:10:57;99876.00;;;11.13;52.47
46199;BME280;31928;52.104;10.030;2023-01-30T12:13:30;99893.44;;;11.04;51.13
46199;BME280;31928;52.104;10.030;2023-01-30T12:16:21;99893.25;;;11.17;51.99
46199;BME280;31928;52.104;10.030;2023-01-30T12:19:13;99881.50;;;11.18;51.53
46199;BME280;31928;52.104;10.030;2023-01-30T12:21:50;99877.16;;;11.17;51.50
46199;BME280;31928;52.104;10.030;2023-01-30T12:27:18;99863.88;;;11.22;51.32
46199;BME280;31928;52.104;10.030;2023-01-30T12:32:21;99876.44;;;11.10;51.03
46199;BME280;31928;52.104;10.030;2023-01-30T12:34:50;99847.72;;;10.99;51.01
46199;BME280;31928;52.104;10.030;2023-01-30T12:38:16;99868.56;;;10.97;50.18
46199;BME280;31928;52.104;10.030;2023-01-30T12:43:34;99879.63;;;10.89;51.27
46199;BME280;31928;52.104;10.030;2023-01-30T12:49:15;99909.34;;;10.70;51.55
46199;BME280;31928;52.104;10.030;2023-01-30T12:55:01;99914.41;;;10.60;52.48
46199;BME280;31928;52.104;10.030;2023-01-30T13:00:20;99931.16;;;10.38;53.06
46199;BME280;31928;52.104;10.030;2023-01-30T13:05:35;99932.94;;;10.26;53.45
46199;BME280;31928;52.104;10.030;2023-01-30T13:08:33;99941.00;;;10.26;53.35
46199;BME280;31928;52.104;10.030;2023-01-30T13:11:18;99940.06;;;10.14;53.65
46199;BME280;31928;52.104;10.030;2023-01-30T13:13:53;99941.25;;;10.00;54.17
46199;BME280;31928;52.104;10.030;2023-01-30T13:19:25;99928.06;;;9.92;53.91
46199;BME280;31928;52.104;10.030;2023-01-30T13:22:23;99959.91;;;9.82;54.23
46199;BME280;31928;52.104;10.030;2023-01-30T13:25:00;99982.59;;;9.73;54.89
46199;BME280;31928;52.104;10.030;2023-01-30T13:27:33;99971.09;;;9.66;55.37
46199;BME280;31928;52.104;10.030;2023-01-30T13:30:05;99981.06;;;9.59;55.60
46199;BME280;31928;52.104;10.030;2023-01-30T13:32:38;99976.09;;;9.56;55.77
46199;BME280;31928;52.104;10.030;2023-01-30T13:35:15;99973.66;;;9.55;55.40
46199;BME280;31928;52.104;10.030;2023-01-30T13:37:45;99976.56;;;9.54;55.50
46199;BME280;31928;52.104;10.030;2023-01-30T13:40:18;99974.53;;;9.49;55.27
46199;BME280;31928;52.104;10.030;2023-01-30T13:42:51;99973.69;;;9.49;55.25
46199;BME280;31928;52.104;10.030;2023-01-30T13:45:25;99981.13;;;9.47;55.35
46199;BME280;31928;52.104;10.030;2023-01-30T13:53:46;99972.66;;;9.50;55.75
46199;BME280;31928;52.104;10.030;2023-01-30T13:56:22;99962.13;;;9.55;55.29
46199;BME280;31928;52.104;10.030;2023-01-30T14:09:45;99959.00;;;9.88;53.57
46199;BME280;31928;52.104;10.030;2023-01-30T14:12:23;99962.88;;;9.92;53.26
46199;BME280;31928;52.104;10.030;2023-01-30T14:18:02;99978.28;;;10.03;53.22
46199;BME280;31928;52.104;10.030;2023-01-30T14:20:43;100000.16;;;10.00;53.21
46199;BME280;31928;52.104;10.030;2023-01-30T14:23:30;99998.22;;;10.07;53.18
46199;BME280;31928;52.104;10.030;2023-01-30T14:25:57;100013.72;;;9.99;52.87
46199;BME280;31928;52.104;10.030;2023-01-30T14:30:52;100034.97;;;10.00;52.81
46199;BME280;31928;52.104;10.030;2023-01-30T14:38:37;100072.59;;;10.05;53.71
46199;BME280;31928;52.104;10.030;2023-01-30T14:49:12;100105.19;;;10.02;53.13
46199;BME280;31928;52.104;10.030;2023-01-30T14:51:47;100110.97;;;9.99;53.28
46199;BME280;31928;52.104;10.030;2023-01-30T15:02:17;100142.66;;;10.02;53.12
46199;BME280;31928;52.104;10.030;2023-01-30T15:07:44;100137.75;;;9.99;53.24
46199;BME280;31928;52.104;10.030;2023-01-30T15:18:38;100166.16;;;9.94;53.80
46199;BME280;31928;52.104;10.030;2023-01-30T15:24:23;100184.66;;;10.08;53.32
46199;BME280;31928;52.104;10.030;2023-01-30T15:27:18;100176.47;;;9.97;53.41
46199;BME280;31928;52.104;10.030;2023-01-30T15:30:04;100158.16;;;9.87;52.95
46199;BME280;31928;52.104;10.030;2023-01-30T15:32:37;100175.06;;;9.81;53.17
46199;BME280;31928;52.104;10.030;2023-01-30T15:37:45;100186.38;;;9.83;52.87
46199;BME280;31928;52.104;10.030;2023-01-30T15:45:23;100193.59;;;9.83;52.44
46199;BME280;31928;52.104;10.030;2023-01-30T15:48:07;100207.41;;;9.86;52.79
46199;BME280;31928;52.104;10.030;2023-01-30T15:50:46;100211.91;;;9.86;52.05